createdAt,value
2023-02-05T00:00:31.927Z,-3.79
2023-02-05T00:03:20.105Z,-3.79
2023-02-05T00:05:48.470Z,-3.88
2023-02-05T00:08:16.793Z,-3.90
2023-02-05T00:10:51.332Z,-3.89
2023-02-05T00:13:19.872Z,-3.86
2023-02-05T00:15:48.251Z,-3.90
2023-02-05T00:18:16.674Z,-3.91
2023-02-05T00:20:45.208Z,-3.86
2023-02-05T00:23:13.818Z,-3.94
2023-02-05T00:25:42.521Z,-3.95
2023-02-05T00:28:10.890Z,-4.01
2023-02-05T00:30:41.691Z,-4.04
2023-02-05T00:33:10.280Z,-4.08
2023-02-05T00:35:38.665Z,-4.14
2023-02-05T00:38:06.839Z,-4.13
2023-02-05T00:40:35.291Z,-4.13
2023-02-05T00:43:03.731Z,-4.11
2023-02-05T00:45:35.826Z,-4.09
2023-02-05T00:48:05.852Z,-4.13
2023-02-05T00:50:35.019Z,-4.16
2023-02-05T00:53:02.944Z,-4.21
2023-02-05T00:55:31.574Z,-4.31
2023-02-05T00:58:01.445Z,-4.34
2023-02-05T01:00:29.910Z,-4.41
2023-02-05T01:02:58.085Z,-4.43
2023-02-05T01:05:31.506Z,-4.45
2023-02-05T01:07:59.834Z,-4.44
2023-02-05T01:10:28.094Z,-4.51
2023-02-05T01:12:56.904Z,-4.50
2023-02-05T01:15:25.943Z,-4.48
2023-02-05T01:17:54.245Z,-4.47
2023-02-05T01:20:22.499Z,-4.44
2023-02-05T01:22:50.657Z,-4.40
2023-02-05T01:25:19.383Z,-4.37
2023-02-05T01:27:47.978Z,-4.34
2023-02-05T01:30:16.405Z,-4.32
2023-02-05T01:32:44.589Z,-4.30
2023-02-05T01:35:12.845Z,-4.29
2023-02-05T01:37:41.147Z,-4.30
2023-02-05T01:40:15.258Z,-4.33
2023-02-05T01:42:44.095Z,-4.38
2023-02-05T01:45:22.112Z,-4.47
2023-02-05T01:48:03.015Z,-4.51
2023-02-05T01:50:31.369Z,-4.55
2023-02-05T01:53:06.168Z,-4.60
2023-02-05T01:55:38.930Z,-4.67
2023-02-05T01:58:07.436Z,-4.76
2023-02-05T02:00:35.706Z,-4.79
2023-02-05T02:03:04.627Z,-4.83
2023-02-05T02:05:33.378Z,-4.81
2023-02-05T02:08:02.803Z,-4.87
2023-02-05T02:10:32.118Z,-4.88
2023-02-05T02:13:01.621Z,-4.91
2023-02-05T02:15:30.578Z,-4.90
2023-02-05T02:18:22.460Z,-4.93
2023-02-05T02:21:05.553Z,-4.93
2023-02-05T02:24:11.280Z,-4.98
2023-02-05T02:27:00.884Z,-4.99
2023-02-05T02:29:52.842Z,-5.02
2023-02-05T02:32:42.972Z,-5.07
2023-02-05T02:35:16.228Z,-5.11
2023-02-05T02:37:57.020Z,-5.17
2023-02-05T02:40:50.110Z,-5.21
2023-02-05T02:43:19.501Z,-5.23
2023-02-05T02:46:00.841Z,-5.28
2023-02-05T02:48:33.643Z,-5.32
2023-02-05T02:51:05.466Z,-5.32
2023-02-05T02:53:38.754Z,-5.34
2023-02-05T02:56:11.280Z,-5.35
2023-02-05T02:58:50.070Z,-5.33
2023-02-05T03:01:22.790Z,-5.32
2023-02-05T03:04:03.464Z,-5.35
2023-02-05T03:06:33.835Z,-5.41
2023-02-05T03:09:32.301Z,-5.46
2023-02-05T03:12:00.899Z,-5.44
2023-02-05T03:14:30.852Z,-5.44
2023-02-05T03:17:00.069Z,-5.45
2023-02-05T03:19:29.462Z,-5.45
2023-02-05T03:22:02.889Z,-5.46
2023-02-05T03:24:32.398Z,-5.46
2023-02-05T03:27:01.106Z,-5.49
2023-02-05T03:29:35.633Z,-5.51
2023-02-05T03:32:13.231Z,-5.52
2023-02-05T03:34:55.183Z,-5.50
2023-02-05T03:38:08.501Z,-5.43
2023-02-05T03:40:51.317Z,-5.39
2023-02-05T03:43:30.606Z,-5.36
2023-02-05T03:46:11.730Z,-5.34
2023-02-05T03:49:02.980Z,-5.34
2023-02-05T03:51:41.267Z,-5.38
2023-02-05T03:54:29.507Z,-5.41
2023-02-05T03:57:06.023Z,-5.42
2023-02-05T03:59:38.700Z,-5.39
2023-02-05T04:02:07.553Z,-5.39
2023-02-05T04:04:39.399Z,-5.38
2023-02-05T04:07:08.813Z,-5.38
2023-02-05T04:09:37.951Z,-5.40
2023-02-05T04:12:07.263Z,-5.43
2023-02-05T04:14:35.761Z,-5.44
2023-02-05T04:17:04.684Z,-5.47
2023-02-05T04:19:32.861Z,-5.48
2023-02-05T04:22:02.159Z,-5.49
2023-02-05T04:24:32.158Z,-5.53
2023-02-05T04:27:00.699Z,-5.51
2023-02-05T04:29:28.912Z,-5.49
2023-02-05T04:31:59.094Z,-5.49
2023-02-05T04:34:27.535Z,-5.44
2023-02-05T04:36:56.625Z,-5.44
2023-02-05T04:39:26.804Z,-5.43
2023-02-05T04:41:55.271Z,-5.38
2023-02-05T04:44:23.918Z,-5.36
2023-02-05T04:46:52.226Z,-5.31
2023-02-05T04:49:20.813Z,-5.28
2023-02-05T04:51:49.197Z,-5.30
2023-02-05T04:54:17.950Z,-5.31
2023-02-05T04:56:47.091Z,-5.30
2023-02-05T04:59:15.728Z,-5.27
2023-02-05T05:01:43.892Z,-5.27
2023-02-05T05:04:12.601Z,-5.25
2023-02-05T05:06:41.347Z,-5.21
2023-02-05T05:09:09.841Z,-5.14
2023-02-05T05:11:39.891Z,-5.13
2023-02-05T05:14:08.520Z,-5.15
2023-02-05T05:16:36.915Z,-5.09
2023-02-05T05:19:05.644Z,-5.05
2023-02-05T05:21:33.927Z,-5.02
2023-02-05T05:24:02.051Z,-5.00
2023-02-05T05:26:30.888Z,-5.01
2023-02-05T05:28:59.539Z,-5.03
2023-02-05T05:31:28.021Z,-5.04
2023-02-05T05:33:56.029Z,-5.04
2023-02-05T05:36:24.389Z,-5.03
2023-02-05T05:38:52.914Z,-5.05
2023-02-05T05:41:43.411Z,-5.06
2023-02-05T05:44:11.985Z,-5.08
2023-02-05T05:46:41.038Z,-5.10
2023-02-05T05:49:09.534Z,-5.12
2023-02-05T05:51:37.868Z,-5.09
2023-02-05T05:54:05.964Z,-5.11
2023-02-05T05:56:35.927Z,-5.07
2023-02-05T05:59:04.642Z,-5.06
2023-02-05T06:01:33.245Z,-5.05
2023-02-05T06:04:03.952Z,-5.13
2023-02-05T06:06:33.380Z,-5.08
2023-02-05T06:09:02.286Z,-5.08
2023-02-05T06:11:30.474Z,-5.12
2023-02-05T06:13:58.967Z,-5.21
2023-02-05T06:16:27.578Z,-5.26
2023-02-05T06:18:56.481Z,-5.24
2023-02-05T06:21:24.628Z,-5.19
2023-02-05T06:23:52.897Z,-5.17
2023-02-05T06:26:21.136Z,-5.27
2023-02-05T06:28:49.337Z,-5.28
2023-02-05T06:31:20.339Z,-5.34
2023-02-05T06:33:48.478Z,-5.28
2023-02-05T06:36:16.781Z,-5.22
2023-02-05T06:38:45.516Z,-5.13
2023-02-05T06:41:14.261Z,-5.03
2023-02-05T06:43:43.337Z,-4.97
2023-02-05T06:46:12.295Z,-4.91
2023-02-05T06:48:40.963Z,-4.87
2023-02-05T06:51:10.027Z,-4.84
2023-02-05T06:53:38.626Z,-4.83
2023-02-05T06:56:07.212Z,-4.83
2023-02-05T06:58:35.676Z,-4.82
2023-02-05T07:01:04.124Z,-4.71
2023-02-05T07:03:33.642Z,-4.71
2023-02-05T07:06:04.287Z,-4.69
2023-02-05T07:08:34.188Z,-4.66
2023-02-05T07:11:03.318Z,-4.62
2023-02-05T07:13:32.482Z,-4.49
2023-02-05T07:16:04.396Z,-4.35
2023-02-05T07:18:34.352Z,-4.21
2023-02-05T07:21:11.168Z,-4.09
2023-02-05T07:23:41.007Z,-4.02
2023-02-05T07:26:11.981Z,-4.18
2023-02-05T07:28:41.476Z,-4.16
2023-02-05T07:31:15.499Z,-4.07
2023-02-05T07:33:45.132Z,-4.05
2023-02-05T07:36:16.849Z,-4.03
2023-02-05T07:38:47.377Z,-4.06
2023-02-05T07:41:17.925Z,-3.87
2023-02-05T07:43:47.515Z,-3.64
2023-02-05T07:46:16.966Z,-3.33
2023-02-05T07:48:46.395Z,-3.17
2023-02-05T07:51:21.078Z,-3.12
2023-02-05T07:53:51.510Z,-3.46
2023-02-05T07:56:22.742Z,-3.51
2023-02-05T07:58:51.606Z,-3.54
2023-02-05T08:01:20.208Z,-3.71
2023-02-05T08:03:49.033Z,-3.55
2023-02-05T08:06:17.526Z,-3.50
2023-02-05T08:08:45.579Z,-3.57
2023-02-05T08:11:16.356Z,-3.40
2023-02-05T08:13:46.018Z,-3.26
2023-02-05T08:16:18.245Z,-3.08
2023-02-05T08:18:51.083Z,-2.92
2023-02-05T08:21:22.189Z,-2.67
2023-02-05T08:23:51.161Z,-2.52
2023-02-05T08:26:19.842Z,-2.73
2023-02-05T08:28:48.640Z,-2.86
2023-02-05T08:31:19.808Z,-2.70
2023-02-05T08:33:51.088Z,-2.72
2023-02-05T08:36:19.248Z,-2.81
2023-02-05T08:38:47.920Z,-3.12
2023-02-05T08:41:16.396Z,-3.64
2023-02-05T08:43:47.248Z,-3.67
2023-02-05T08:46:19.532Z,-3.70
2023-02-05T08:48:49.301Z,-3.72
2023-02-05T08:51:19.558Z,-3.83
2023-02-05T08:53:48.863Z,-3.54
2023-02-05T08:56:19.947Z,-3.56
2023-02-05T08:58:49.355Z,-3.68
2023-02-05T09:01:18.906Z,-3.47
2023-02-05T09:03:47.270Z,-3.18
2023-02-05T09:06:16.654Z,-2.93
2023-02-05T09:08:45.121Z,-2.80
2023-02-05T09:11:13.755Z,-2.46
2023-02-05T09:13:42.796Z,-2.22
2023-02-05T09:16:11.757Z,-2.19
2023-02-05T09:18:40.860Z,-2.01
2023-02-05T09:21:10.645Z,-1.95
2023-02-05T09:23:40.318Z,-1.82
2023-02-05T09:26:09.621Z,-1.97
2023-02-05T09:28:38.714Z,-1.97
2023-02-05T09:31:11.923Z,-2.08
2023-02-05T09:33:40.783Z,-2.14
2023-02-05T09:36:13.277Z,-2.23
2023-02-05T09:38:41.946Z,-2.48
2023-02-05T09:41:13.124Z,-2.35
2023-02-05T09:44:12.226Z,-2.44
2023-02-05T09:47:06.482Z,-2.56
2023-02-05T09:50:02.692Z,-2.58
2023-02-05T09:52:33.499Z,-2.54
2023-02-05T09:55:04.541Z,-2.66
2023-02-05T09:57:39.797Z,-2.83
2023-02-05T10:00:28.709Z,-2.69
2023-02-05T10:03:12.421Z,-2.85
2023-02-05T10:06:18.323Z,-3.06
2023-02-05T10:08:57.998Z,-3.07
2023-02-05T10:11:43.334Z,-2.99
2023-02-05T10:14:14.420Z,-3.03
2023-02-05T10:16:51.589Z,-2.92
2023-02-05T10:19:44.838Z,-3.04
2023-02-05T10:22:21.698Z,-3.27
2023-02-05T10:25:08.855Z,-3.44
2023-02-05T10:28:22.550Z,-3.53
2023-02-05T10:31:08.244Z,-3.71
2023-02-05T10:33:57.089Z,-4.04
2023-02-05T10:36:27.654Z,-4.07
2023-02-05T10:38:57.838Z,-3.95
2023-02-05T10:41:39.926Z,-3.75
2023-02-05T10:44:34.046Z,-3.52
2023-02-05T10:47:37.221Z,-3.39
2023-02-05T10:50:23.877Z,-3.39
2023-02-05T10:52:52.161Z,-3.36
2023-02-05T10:55:20.294Z,-3.39
2023-02-05T10:57:49.038Z,-3.46
2023-02-05T11:00:21.214Z,-3.34
2023-02-05T11:02:52.697Z,-3.37
2023-02-05T11:05:41.919Z,-3.43
2023-02-05T11:08:42.688Z,-3.34
2023-02-05T11:11:29.516Z,-3.25
2023-02-05T11:14:02.081Z,-3.20
2023-02-05T11:16:44.265Z,-3.20
2023-02-05T11:19:24.107Z,-3.09
2023-02-05T11:21:57.098Z,-3.12
2023-02-05T11:24:39.959Z,-3.03
2023-02-05T11:27:30.440Z,-3.09
2023-02-05T11:30:51.805Z,-3.08
2023-02-05T11:33:20.321Z,-3.07
2023-02-05T11:36:00.007Z,-3.12
2023-02-05T11:38:46.172Z,-3.10
2023-02-05T11:41:30.177Z,-2.92
2023-02-05T11:44:03.733Z,-2.90
2023-02-05T11:46:38.071Z,-2.86
2023-02-05T11:49:06.688Z,-2.77
2023-02-05T11:51:35.314Z,-2.77
2023-02-05T11:54:27.464Z,-2.81
2023-02-05T11:57:14.176Z,-2.82
2023-02-05T11:59:45.132Z,-2.85
2023-02-05T12:02:29.468Z,-2.85
2023-02-05T12:05:07.924Z,-2.72
2023-02-05T12:08:03.032Z,-2.72
2023-02-05T12:10:50.556Z,-2.78
2023-02-05T12:13:45.678Z,-2.73
2023-02-05T12:16:26.639Z,-2.68
2023-02-05T12:19:07.968Z,-2.66
2023-02-05T12:21:51.792Z,-2.58
2023-02-05T12:24:41.383Z,-2.61
2023-02-05T12:27:34.632Z,-2.70
2023-02-05T12:30:40.283Z,-2.62
2023-02-05T12:33:47.007Z,-2.61
2023-02-05T12:37:09.863Z,-2.62
2023-02-05T12:40:19.920Z,-2.62
2023-02-05T12:43:06.836Z,-2.60
2023-02-05T12:45:45.666Z,-2.47
2023-02-05T12:48:26.551Z,-2.39
2023-02-05T12:51:10.341Z,-2.47
2023-02-05T12:53:59.775Z,-2.48
2023-02-05T12:56:54.190Z,-2.57
2023-02-05T12:59:36.902Z,-2.69
2023-02-05T13:02:24.583Z,-2.67
2023-02-05T13:05:14.531Z,-2.66
2023-02-05T13:07:47.145Z,-2.64
2023-02-05T13:10:24.501Z,-2.67
2023-02-05T13:12:59.741Z,-2.63
2023-02-05T13:15:35.593Z,-2.65
2023-02-05T13:18:17.308Z,-2.72
2023-02-05T13:21:12.620Z,-2.76
2023-02-05T13:24:01.933Z,-2.68
2023-02-05T13:27:00.351Z,-2.72
2023-02-05T13:29:33.736Z,-2.77
2023-02-05T13:32:16.827Z,-2.83
2023-02-05T13:34:45.312Z,-2.92
2023-02-05T13:37:53.054Z,-2.98
2023-02-05T13:40:44.225Z,-3.00
2023-02-05T13:43:27.716Z,-3.01
2023-02-05T13:46:37.750Z,-3.04
2023-02-05T13:49:34.693Z,-3.06
2023-02-05T13:52:27.895Z,-3.03
2023-02-05T13:55:18.680Z,-3.02
2023-02-05T13:58:02.382Z,-3.00
2023-02-05T14:00:31.738Z,-2.96
2023-02-05T14:03:05.829Z,-2.91
2023-02-05T14:05:41.467Z,-2.85
2023-02-05T14:08:26.778Z,-2.85
2023-02-05T14:11:03.728Z,-2.92
2023-02-05T14:13:34.425Z,-2.90
2023-02-05T14:16:24.489Z,-2.92
2023-02-05T14:19:01.917Z,-2.93
2023-02-05T14:21:30.280Z,-2.99
2023-02-05T14:24:23.046Z,-3.08
2023-02-05T14:26:57.740Z,-3.08
2023-02-05T14:29:44.853Z,-3.08
2023-02-05T14:32:42.886Z,-3.07
2023-02-05T14:35:10.941Z,-3.11
2023-02-05T14:37:42.763Z,-3.19
2023-02-05T14:40:37.753Z,-3.27
2023-02-05T14:43:23.548Z,-3.31
2023-02-05T14:45:53.751Z,-3.40
2023-02-05T14:48:27.854Z,-3.40
2023-02-05T14:51:40.852Z,-3.44
2023-02-05T14:54:15.168Z,-3.54
2023-02-05T14:57:10.693Z,-3.61
2023-02-05T14:59:52.314Z,-3.68
2023-02-05T15:02:48.686Z,-3.75
2023-02-05T15:05:30.297Z,-3.78
2023-02-05T15:08:18.008Z,-3.81
2023-02-05T15:10:54.867Z,-3.87
2023-02-05T15:13:25.175Z,-3.91
2023-02-05T15:16:12.158Z,-3.92
2023-02-05T15:18:45.406Z,-3.98
2023-02-05T15:21:16.442Z,-4.04
2023-02-05T15:23:47.278Z,-4.10
2023-02-05T15:26:24.599Z,-4.16
2023-02-05T15:28:59.992Z,-4.19
2023-02-05T15:31:51.262Z,-4.20
2023-02-05T15:34:38.056Z,-4.20
2023-02-05T15:37:09.294Z,-4.20
2023-02-05T15:39:51.190Z,-4.23
2023-02-05T15:42:41.176Z,-4.26
2023-02-05T15:45:27.112Z,-4.30
2023-02-05T15:48:10.390Z,-4.36
2023-02-05T15:50:54.542Z,-4.35
2023-02-05T15:53:43.313Z,-4.39
2023-02-05T15:56:18.810Z,-4.41
2023-02-05T15:59:00.434Z,-4.44
2023-02-05T16:01:30.470Z,-4.46
2023-02-05T16:03:59.022Z,-4.48
2023-02-05T16:06:29.691Z,-4.55
2023-02-05T16:08:58.006Z,-4.56
2023-02-05T16:11:32.263Z,-4.51
2023-02-05T16:14:05.767Z,-4.52
2023-02-05T16:16:39.877Z,-4.50
2023-02-05T16:19:15.899Z,-4.50
2023-02-05T16:21:51.888Z,-4.50
2023-02-05T16:24:33.748Z,-4.50
2023-02-05T16:27:28.318Z,-4.55
2023-02-05T16:29:59.684Z,-4.58
2023-02-05T16:32:36.597Z,-4.60
2023-02-05T16:35:08.545Z,-4.62
2023-02-05T16:37:36.872Z,-4.64
2023-02-05T16:40:07.767Z,-4.63
2023-02-05T16:42:43.347Z,-4.58
2023-02-05T16:45:19.676Z,-4.55
2023-02-05T16:48:25.544Z,-4.55
2023-02-05T16:50:54.816Z,-4.58
2023-02-05T16:53:26.709Z,-4.60
2023-02-05T16:56:13.272Z,-4.65
2023-02-05T16:58:51.921Z,-4.73
2023-02-05T17:01:37.531Z,-4.81
2023-02-05T17:04:06.704Z,-4.90
2023-02-05T17:06:37.761Z,-4.98
2023-02-05T17:09:06.608Z,-5.06
2023-02-05T17:11:38.574Z,-5.12
2023-02-05T17:14:33.296Z,-5.17
2023-02-05T17:17:07.726Z,-5.20
2023-02-05T17:19:39.373Z,-5.20
2023-02-05T17:22:13.778Z,-5.22
2023-02-05T17:24:51.913Z,-5.23
2023-02-05T17:27:30.838Z,-5.22
2023-02-05T17:30:00.220Z,-5.21
2023-02-05T17:32:30.392Z,-5.18
2023-02-05T17:35:00.028Z,-5.16
2023-02-05T17:37:28.338Z,-5.15
2023-02-05T17:39:58.049Z,-5.13
2023-02-05T17:42:27.206Z,-5.09
2023-02-05T17:44:56.396Z,-5.09
2023-02-05T17:47:24.511Z,-5.11
2023-02-05T17:49:52.671Z,-5.14
2023-02-05T17:52:20.921Z,-5.17
2023-02-05T17:54:48.979Z,-5.20
2023-02-05T17:57:20.175Z,-5.24
2023-02-05T17:59:49.529Z,-5.27
2023-02-05T18:02:18.309Z,-5.29
2023-02-05T18:04:47.154Z,-5.33
2023-02-05T18:07:33.163Z,-5.40
2023-02-05T18:10:03.751Z,-5.43
2023-02-05T18:12:33.636Z,-5.42
2023-02-05T18:15:02.178Z,-5.41
2023-02-05T18:17:30.453Z,-5.41
2023-02-05T18:19:58.692Z,-5.42
2023-02-05T18:22:26.998Z,-5.42
2023-02-05T18:24:54.949Z,-5.42
2023-02-05T18:27:23.380Z,-5.42
2023-02-05T18:29:51.944Z,-5.44
2023-02-05T18:32:20.058Z,-5.44
2023-02-05T18:34:48.438Z,-5.47
2023-02-05T18:37:17.043Z,-5.48
2023-02-05T18:39:45.924Z,-5.50
2023-02-05T18:42:14.819Z,-5.55
2023-02-05T18:44:43.358Z,-5.58
2023-02-05T18:47:13.095Z,-5.62
2023-02-05T18:49:42.983Z,-5.66
2023-02-05T18:52:12.162Z,-5.69
2023-02-05T18:54:40.966Z,-5.71
2023-02-05T18:57:09.048Z,-5.70
2023-02-05T18:59:38.280Z,-5.70
2023-02-05T19:02:09.910Z,-5.71
2023-02-05T19:04:39.074Z,-5.67
2023-02-05T19:07:08.554Z,-5.65
2023-02-05T19:09:36.691Z,-5.67
2023-02-05T19:12:05.088Z,-5.69
2023-02-05T19:14:33.720Z,-5.72
2023-02-05T19:17:01.890Z,-5.76
2023-02-05T19:19:31.523Z,-5.81
2023-02-05T19:22:02.102Z,-5.85
2023-02-05T19:24:31.611Z,-5.88
2023-02-05T19:27:00.214Z,-5.91
2023-02-05T19:29:28.901Z,-5.93
2023-02-05T19:31:58.889Z,-5.95
2023-02-05T19:34:28.072Z,-5.99
2023-02-05T19:36:56.314Z,-6.02
2023-02-05T19:39:24.493Z,-6.02
2023-02-05T19:41:53.060Z,-6.00
2023-02-05T19:44:22.136Z,-5.98
2023-02-05T19:46:51.161Z,-5.96
2023-02-05T19:49:21.743Z,-5.93
2023-02-05T19:51:54.492Z,-5.92
2023-02-05T19:54:23.530Z,-5.92
2023-02-05T19:56:52.061Z,-5.91
2023-02-05T19:59:21.316Z,-5.87
2023-02-05T20:01:50.024Z,-5.85
2023-02-05T20:04:22.512Z,-5.83
2023-02-05T20:06:55.695Z,-5.81
2023-02-05T20:09:24.378Z,-5.81
2023-02-05T20:11:53.480Z,-5.78
2023-02-05T20:14:22.295Z,-5.79
2023-02-05T20:16:52.181Z,-5.80
2023-02-05T20:19:21.366Z,-5.81
2023-02-05T20:21:49.905Z,-5.86
2023-02-05T20:24:18.131Z,-5.87
2023-02-05T20:26:50.220Z,-5.85
2023-02-05T20:29:36.911Z,-5.86
2023-02-05T20:32:05.835Z,-5.88
2023-02-05T20:34:36.129Z,-5.92
2023-02-05T20:37:07.503Z,-5.95
2023-02-05T20:39:44.605Z,-5.96
2023-02-05T20:42:17.338Z,-5.96
2023-02-05T20:44:45.518Z,-5.95
2023-02-05T20:47:15.125Z,-5.94
2023-02-05T20:49:43.464Z,-5.93
2023-02-05T20:52:12.162Z,-5.90
2023-02-05T20:54:40.389Z,-5.88
2023-02-05T20:57:09.617Z,-5.88
2023-02-05T20:59:38.776Z,-5.89
2023-02-05T21:02:07.121Z,-5.90
2023-02-05T21:04:36.629Z,-5.97
2023-02-05T21:07:05.387Z,-6.00
2023-02-05T21:09:34.831Z,-6.04
2023-02-05T21:12:03.607Z,-6.09
2023-02-05T21:14:32.246Z,-6.09
2023-02-05T21:17:00.524Z,-6.12
2023-02-05T21:19:28.834Z,-6.15
2023-02-05T21:21:58.301Z,-6.21
2023-02-05T21:24:26.990Z,-6.24
2023-02-05T21:26:55.472Z,-6.28
2023-02-05T21:29:23.761Z,-6.32
2023-02-05T21:31:55.767Z,-6.35
2023-02-05T21:34:27.777Z,-6.39
2023-02-05T21:36:56.753Z,-6.41
2023-02-05T21:39:25.775Z,-6.41
2023-02-05T21:41:54.513Z,-6.43
2023-02-05T21:44:24.370Z,-6.47
2023-02-05T21:46:55.420Z,-6.49
2023-02-05T21:49:24.567Z,-6.53
2023-02-05T21:51:53.583Z,-6.52
2023-02-05T21:54:25.808Z,-6.51
2023-02-05T21:56:54.964Z,-6.55
2023-02-05T21:59:24.129Z,-6.55
2023-02-05T22:01:52.496Z,-6.57
2023-02-05T22:04:21.001Z,-6.60
2023-02-05T22:06:50.953Z,-6.60
2023-02-05T22:09:19.400Z,-6.57
2023-02-05T22:11:49.542Z,-6.59
2023-02-05T22:14:18.330Z,-6.58
2023-02-05T22:16:46.444Z,-6.57
2023-02-05T22:19:14.716Z,-6.57
2023-02-05T22:21:43.812Z,-6.58
2023-02-05T22:24:17.068Z,-6.60
2023-02-05T22:26:46.840Z,-6.61
2023-02-05T22:29:19.188Z,-6.63
2023-02-05T22:31:57.087Z,-6.65
2023-02-05T22:34:25.435Z,-6.69
2023-02-05T22:36:53.703Z,-6.72
2023-02-05T22:39:22.309Z,-6.73
2023-02-05T22:41:50.586Z,-6.75
2023-02-05T22:44:18.850Z,-6.77
2023-02-05T22:46:47.318Z,-6.79
2023-02-05T22:49:15.785Z,-6.80
2023-02-05T22:51:45.432Z,-6.81
2023-02-05T22:54:15.450Z,-6.82
2023-02-05T22:56:44.742Z,-6.80
2023-02-05T22:59:13.646Z,-6.80
2023-02-05T23:01:41.901Z,-6.81
2023-02-05T23:04:10.740Z,-6.82
2023-02-05T23:06:42.424Z,-6.86
2023-02-05T23:09:14.918Z,-6.88
2023-02-05T23:11:44.658Z,-6.87
2023-02-05T23:14:15.491Z,-6.85
2023-02-05T23:16:46.021Z,-6.85
2023-02-05T23:19:18.773Z,-6.84
2023-02-05T23:21:48.285Z,-6.88
2023-02-05T23:24:17.969Z,-6.88
2023-02-05T23:26:50.916Z,-6.90
2023-02-05T23:29:19.732Z,-6.90
2023-02-05T23:31:48.382Z,-6.92
2023-02-05T23:34:16.660Z,-6.94
2023-02-05T23:36:44.807Z,-6.96
2023-02-05T23:39:12.995Z,-6.98
2023-02-05T23:41:41.484Z,-7.00
2023-02-05T23:44:12.893Z,-6.99
2023-02-05T23:46:42.786Z,-7.00
2023-02-05T23:49:12.245Z,-7.01
2023-02-05T23:51:41.354Z,-7.03
2023-02-05T23:54:11.548Z,-7.06
2023-02-05T23:56:41.082Z,-7.12
2023-02-05T23:59:11.138Z,-7.16
